Barkley Regional Airport


Codes: KPAH/PAH
Name: Barkley Regional Airport
City: Paducah
Country: United States
Elevation: 410 ft.
Wikipedia:

Photos at Barkley Regional Airport


   Photos courtesy of SpottingLog. You can add your own sightings and photos by signing up for a free trial today.



No photos found.

Weather at Barkley Regional Airport


Time (UTC)DescriptionTempratureWindCloud coverageVisibilityPressureHumidity
15-Apr-2024 18:00Clear Sky26°C9 mph, SW0%10000m1010hPa66%
15-Apr-2024 21:00Light Rain25°C7 mph, S33%10000m1011hPa71%
16-Apr-2024 00:00Light Rain23°C9 mph, S67%10000m1012hPa78%
16-Apr-2024 03:00Overcast Clouds20°C7 mph, S100%10000m1014hPa90%
16-Apr-2024 06:00Overcast Clouds18°C7 mph, SE100%10000m1014hPa95%
16-Apr-2024 09:00Light Rain19°C9 mph, S100%10000m1013hPa87%
16-Apr-2024 12:00Light Rain18°C9 mph, S100%10000m1013hPa88%
16-Apr-2024 15:00Overcast Clouds22°C13 mph, S100%10000m1013hPa78%
16-Apr-2024 18:00Overcast Clouds24°C18 mph, S100%10000m1011hPa71%
16-Apr-2024 21:00Overcast Clouds25°C18 mph, S100%10000m1009hPa63%
17-Apr-2024 00:00Light Rain20°C13 mph, S100%4517m1009hPa84%
17-Apr-2024 03:00Light Rain20°C18 mph, S100%8255m1009hPa85%
17-Apr-2024 06:00Light Rain19°C16 mph, S89%10000m1008hPa93%
17-Apr-2024 09:00Light Rain19°C20 mph, S83%10000m1008hPa92%
17-Apr-2024 12:00Light Rain20°C18 mph, SW92%10000m1009hPa89%
17-Apr-2024 15:00Light Rain21°C18 mph, SW100%10000m1009hPa86%
17-Apr-2024 18:00Light Rain24°C20 mph, SW76%10000m1009hPa70%
17-Apr-2024 21:00Light Rain25°C16 mph, W23%10000m1009hPa59%
18-Apr-2024 00:00Few Clouds20°C7 mph, W12%10000m1011hPa75%
18-Apr-2024 03:00Clear Sky16°C4 mph, N0%10000m1014hPa83%
18-Apr-2024 06:00Clear Sky13°C4 mph, N0%10000m1016hPa83%
18-Apr-2024 09:00Clear Sky12°C2 mph, NE2%10000m1017hPa87%
18-Apr-2024 12:00Clear Sky11°C4 mph, NE3%10000m1017hPa87%
18-Apr-2024 15:00Clear Sky17°C7 mph, NE3%10000m1018hPa65%
18-Apr-2024 18:00Clear Sky22°C4 mph, SE2%10000m1016hPa57%
18-Apr-2024 21:00Broken Clouds23°C4 mph, SE62%10000m1014hPa63%
19-Apr-2024 00:00Light Rain19°C4 mph, NE81%10000m1012hPa88%
19-Apr-2024 03:00Moderate Rain17°C7 mph, N100%10000m1014hPa96%
19-Apr-2024 06:00Moderate Rain16°C9 mph, N100%10000m1014hPa96%
19-Apr-2024 09:00Light Rain13°C13 mph, N91%10000m1015hPa95%
19-Apr-2024 12:00Overcast Clouds12°C11 mph, N96%10000m1017hPa91%
19-Apr-2024 15:00Overcast Clouds12°C11 mph, NE100%10000m1019hPa90%
19-Apr-2024 18:00Overcast Clouds14°C13 mph, N100%10000m1019hPa75%
19-Apr-2024 21:00Overcast Clouds18°C11 mph, N94%10000m1018hPa61%
20-Apr-2024 00:00Overcast Clouds14°C9 mph, N88%10000m1020hPa69%
20-Apr-2024 03:00Broken Clouds9°C7 mph, N72%10000m1022hPa69%
20-Apr-2024 06:00Overcast Clouds9°C9 mph, N86%10000m1023hPa69%
20-Apr-2024 09:00Overcast Clouds8°C9 mph, N100%10000m1023hPa63%
20-Apr-2024 12:00Broken Clouds6°C7 mph, N64%10000m1025hPa73%
20-Apr-2024 15:00Clear Sky12°C9 mph, N3%10000m1025hPa52%